createdAt,value
2019-03-01T00:01:36.704Z,3.60
2019-03-01T00:04:16.707Z,3.50
2019-03-01T00:06:55.747Z,3.14
2019-03-01T00:09:42.745Z,3.25
2019-03-01T00:13:21.083Z,3.26
2019-03-01T00:16:08.825Z,3.09
2019-03-01T00:19:50.989Z,3.17
2019-03-01T00:22:27.796Z,2.83
2019-03-01T00:25:07.151Z,2.77
2019-03-01T00:28:55.578Z,2.99
2019-03-01T00:31:38.132Z,2.97
2019-03-01T00:34:26.531Z,2.90
2019-03-01T00:37:09.697Z,3.05
2019-03-01T00:39:47.350Z,2.83
2019-03-01T00:42:26.639Z,2.93
2019-03-01T00:44:56.185Z,3.00
2019-03-01T00:47:25.990Z,3.14
2019-03-01T00:49:55.424Z,3.10
2019-03-01T00:52:24.429Z,3.06
2019-03-01T00:54:53.515Z,3.10
2019-03-01T00:57:22.489Z,2.88
2019-03-01T00:59:52.180Z,2.92
2019-03-01T01:02:21.291Z,2.89
2019-03-01T01:04:50.529Z,3.00
2019-03-01T01:07:19.608Z,2.74
2019-03-01T01:09:48.705Z,2.86
2019-03-01T01:12:18.369Z,2.96
2019-03-01T01:14:47.467Z,2.84
2019-03-01T01:17:16.405Z,2.67
2019-03-01T01:19:45.392Z,2.75
2019-03-01T01:22:14.705Z,2.76
2019-03-01T01:24:43.556Z,2.76
2019-03-01T01:27:12.929Z,2.77
2019-03-01T01:29:41.885Z,2.81
2019-03-01T01:32:11.048Z,2.54
2019-03-01T01:34:40.017Z,2.67
2019-03-01T01:37:09.328Z,2.60
2019-03-01T02:23:13.776Z,3.58
2019-03-01T02:25:42.794Z,3.69
2019-03-01T02:28:12.650Z,3.80
2019-03-01T02:30:41.815Z,3.85
2019-03-01T02:33:11.062Z,3.89
2019-03-01T02:35:40.186Z,3.95
2019-03-01T02:38:10.058Z,4.03
2019-03-01T02:40:39.215Z,4.05
2019-03-01T02:43:08.681Z,4.07
2019-03-01T02:45:37.862Z,4.12
2019-03-01T02:48:07.024Z,4.14
2019-03-01T02:50:36.222Z,4.30
2019-03-01T02:53:05.968Z,4.29
2019-03-01T02:55:35.907Z,4.27
2019-03-01T02:58:05.050Z,4.17
2019-03-01T03:00:34.594Z,4.14
2019-03-01T03:03:03.721Z,3.92
2019-03-01T03:05:33.016Z,3.91
2019-03-01T03:08:04.974Z,3.75
2019-03-01T03:10:34.290Z,3.66
2019-03-01T03:13:05.762Z,3.57
2019-03-01T03:15:38.045Z,3.20
2019-03-01T03:18:07.277Z,3.13
2019-03-01T03:20:36.124Z,2.99
2019-03-01T03:23:05.073Z,2.54
2019-03-01T03:25:34.006Z,2.71
2019-03-01T03:28:03.154Z,2.47
2019-03-01T03:30:32.290Z,2.58
2019-03-01T03:33:01.826Z,2.61
2019-03-01T03:35:31.016Z,2.57
2019-03-01T03:38:00.518Z,2.57
2019-03-01T03:40:30.191Z,2.56
2019-03-01T03:42:59.524Z,2.61
2019-03-01T03:45:29.196Z,2.58
2019-03-01T03:47:58.801Z,2.52
2019-03-01T03:50:28.737Z,2.63
2019-03-01T03:52:58.261Z,2.75
2019-03-01T03:55:27.537Z,2.93
2019-03-01T03:57:56.825Z,3.08
2019-03-01T04:00:26.002Z,3.24
2019-03-01T04:02:55.287Z,3.23
2019-03-01T04:05:24.217Z,3.33
2019-03-01T04:07:53.687Z,3.41
2019-03-01T04:10:22.643Z,3.47
2019-03-01T04:12:51.606Z,3.51
2019-03-01T04:15:20.781Z,3.71
2019-03-01T04:17:49.945Z,3.73
2019-03-01T04:20:19.139Z,3.81
2019-03-01T04:22:49.078Z,3.95
2019-03-01T04:25:18.577Z,4.03
2019-03-01T04:27:47.647Z,3.89
2019-03-01T04:30:17.166Z,3.93
2019-03-01T04:32:46.200Z,4.00
2019-03-01T04:35:15.518Z,3.96
2019-03-01T04:37:45.273Z,3.93
2019-03-01T04:40:16.135Z,3.83
2019-03-01T04:42:45.093Z,3.51
2019-03-01T04:45:14.664Z,3.40
2019-03-01T04:47:43.689Z,3.31
2019-03-01T04:50:12.883Z,3.40
2019-03-01T04:52:43.049Z,3.39
2019-03-01T04:55:14.097Z,3.44
2019-03-01T04:57:43.384Z,3.73
2019-03-01T05:00:15.250Z,3.83
2019-03-01T05:02:45.181Z,4.00
2019-03-01T05:05:15.073Z,4.19
2019-03-01T05:07:44.338Z,4.25
2019-03-01T05:10:14.028Z,4.40
2019-03-01T05:12:43.462Z,4.64
2019-03-01T05:15:23.260Z,4.70
2019-03-01T05:17:52.722Z,4.82
2019-03-01T05:20:21.834Z,4.88
2019-03-01T05:22:51.554Z,5.11
2019-03-01T05:25:20.482Z,5.06
2019-03-01T05:27:49.718Z,5.18
2019-03-01T05:30:18.919Z,5.37
2019-03-01T05:32:49.613Z,5.51
2019-03-01T05:35:18.833Z,5.47
2019-03-01T05:37:48.391Z,5.56
2019-03-01T05:40:17.957Z,5.67
2019-03-01T05:42:47.875Z,5.76
2019-03-01T05:45:19.987Z,5.90
2019-03-01T05:47:49.282Z,5.92
2019-03-01T05:50:19.039Z,6.04
2019-03-01T05:52:48.898Z,6.11
2019-03-01T05:55:18.631Z,6.22
2019-03-01T05:57:58.618Z,6.35
2019-03-01T06:00:28.366Z,6.44
2019-03-01T06:03:14.257Z,6.46
2019-03-01T06:05:43.848Z,6.48
2019-03-01T06:10:26.173Z,6.59
2019-03-01T06:13:10.633Z,6.72
2019-03-01T06:16:48.818Z,6.88
2019-03-01T06:19:28.927Z,6.96
2019-03-01T06:23:18.637Z,7.09
2019-03-01T06:25:59.286Z,7.30
2019-03-01T06:28:40.495Z,7.43
2019-03-01T06:31:21.074Z,7.53
2019-03-01T06:34:42.369Z,7.70
2019-03-01T06:37:24.638Z,7.84
2019-03-01T06:40:16.457Z,7.97
2019-03-01T06:42:54.394Z,8.07
2019-03-01T06:46:02.262Z,8.23
2019-03-01T06:48:39.634Z,8.37
2019-03-01T06:51:13.972Z,8.53
2019-03-01T06:53:44.253Z,8.63
2019-03-01T06:56:14.301Z,8.69
2019-03-01T06:58:46.923Z,8.76
2019-03-01T07:01:18.346Z,8.80
2019-03-01T07:03:51.828Z,8.87
2019-03-01T07:06:21.052Z,9.01
2019-03-01T07:08:50.371Z,9.12
2019-03-01T07:11:19.551Z,9.19
2019-03-01T07:13:48.813Z,9.32
2019-03-01T07:16:18.263Z,9.54
2019-03-01T07:18:49.312Z,9.58
2019-03-01T07:21:18.916Z,9.63
2019-03-01T07:23:47.996Z,9.70
2019-03-01T07:26:17.260Z,9.83
2019-03-01T07:28:46.876Z,9.93
2019-03-01T07:31:16.091Z,9.98
2019-03-01T07:33:46.152Z,10.00
2019-03-01T07:36:15.800Z,10.07
2019-03-01T07:38:45.572Z,10.31
2019-03-01T07:41:15.414Z,10.39
2019-03-01T07:43:44.746Z,10.43
2019-03-01T07:46:13.965Z,10.41
2019-03-01T07:48:43.418Z,10.49
2019-03-01T07:51:12.545Z,10.53
2019-03-01T07:53:42.160Z,10.60
2019-03-01T07:56:11.296Z,10.69
2019-03-01T07:58:40.341Z,10.71
2019-03-01T08:01:09.667Z,10.79
2019-03-01T08:03:39.069Z,10.73
2019-03-01T08:06:13.071Z,10.70
2019-03-01T08:08:39.004Z,10.83
2019-03-01T08:11:07.624Z,10.93
2019-03-01T08:13:37.655Z,11.04
2019-03-01T08:16:06.784Z,11.02
2019-03-01T08:18:36.244Z,11.21
2019-03-01T08:21:06.265Z,11.31
2019-03-01T08:23:35.939Z,11.43
2019-03-01T08:26:05.105Z,11.50
2019-03-01T08:28:34.640Z,11.34
2019-03-01T08:31:04.627Z,11.44
2019-03-01T08:33:33.890Z,11.47
2019-03-01T08:36:05.805Z,11.43
2019-03-01T08:38:33.490Z,11.40
2019-03-01T08:41:02.615Z,11.54
2019-03-01T08:43:31.897Z,11.58
2019-03-01T08:46:01.616Z,11.52
2019-03-01T08:48:33.649Z,11.78
2019-03-01T08:51:00.519Z,11.39
2019-03-01T08:53:30.076Z,11.50
2019-03-01T08:55:59.994Z,11.31
2019-03-01T08:58:28.993Z,11.50
2019-03-01T09:00:59.952Z,11.49
2019-03-01T09:03:32.967Z,11.74
2019-03-01T09:06:02.659Z,12.09
2019-03-01T09:08:32.255Z,12.35
2019-03-01T09:11:05.513Z,12.03
2019-03-01T09:13:32.417Z,12.48
2019-03-01T09:16:02.215Z,12.38
2019-03-01T09:18:31.553Z,12.11
2019-03-01T09:21:05.510Z,12.04
2019-03-01T09:23:30.829Z,12.36
2019-03-01T09:26:00.905Z,12.33
2019-03-01T09:28:32.756Z,12.40
2019-03-01T09:31:00.067Z,12.41
2019-03-01T09:33:30.235Z,12.39
2019-03-01T09:37:03.641Z,12.52
2019-03-01T09:39:33.521Z,12.29
2019-03-01T09:42:06.136Z,12.60
2019-03-01T09:44:34.572Z,12.63
2019-03-01T09:47:02.975Z,12.74
2019-03-01T09:49:32.199Z,12.81
2019-03-01T09:52:01.441Z,12.83
2019-03-01T09:54:31.248Z,13.09
2019-03-01T09:57:00.860Z,13.26
2019-03-01T09:59:30.808Z,13.57
2019-03-01T10:01:59.899Z,13.40
2019-03-01T10:04:29.051Z,13.61
2019-03-01T10:06:59.613Z,13.67
2019-03-01T10:09:28.937Z,13.94
2019-03-01T10:11:59.032Z,13.90
2019-03-01T10:14:28.033Z,14.24
2019-03-01T10:16:57.416Z,14.23
2019-03-01T10:19:26.566Z,14.16
2019-03-01T10:21:55.653Z,14.00
2019-03-01T10:24:25.379Z,13.92
2019-03-01T10:26:54.751Z,14.16
2019-03-01T10:29:24.040Z,14.78
2019-03-01T10:31:54.018Z,14.97
2019-03-01T10:34:24.207Z,15.12
2019-03-01T10:36:53.893Z,14.70
2019-03-01T10:39:23.835Z,14.91
2019-03-01T10:41:53.090Z,14.84
2019-03-01T10:44:22.238Z,15.10
2019-03-01T10:46:52.873Z,15.24
2019-03-01T10:49:22.957Z,14.72
2019-03-01T10:51:52.113Z,14.83
2019-03-01T10:54:21.481Z,14.83
2019-03-01T10:56:50.916Z,14.55
2019-03-01T10:59:20.175Z,14.52
2019-03-01T11:01:49.334Z,14.62
2019-03-01T11:04:19.109Z,14.77
2019-03-01T11:06:48.480Z,14.72
2019-03-01T11:09:17.654Z,14.79
2019-03-01T11:11:46.623Z,14.91
2019-03-01T11:14:15.980Z,14.59
2019-03-01T11:16:45.031Z,14.83
2019-03-01T11:19:14.153Z,15.21
2019-03-01T11:21:43.382Z,15.40
2019-03-01T11:24:12.951Z,15.84
2019-03-01T11:26:42.193Z,15.58
2019-03-01T11:29:12.307Z,15.86
2019-03-01T11:31:41.384Z,15.95
2019-03-01T11:34:11.201Z,15.95
2019-03-01T11:36:40.949Z,16.30
2019-03-01T11:39:10.174Z,16.34
2019-03-01T11:41:40.188Z,16.46
2019-03-01T11:44:09.842Z,16.57
2019-03-01T11:46:40.142Z,16.54
2019-03-01T11:49:09.604Z,16.59
2019-03-01T11:51:39.932Z,16.08
2019-03-01T11:54:09.075Z,16.18
2019-03-01T11:56:38.945Z,16.52
2019-03-01T11:59:08.926Z,16.38
2019-03-01T12:01:38.270Z,16.34
2019-03-01T12:04:07.581Z,16.27
2019-03-01T12:06:37.910Z,16.22
2019-03-01T12:09:07.868Z,16.10
2019-03-01T12:11:37.039Z,16.44
2019-03-01T12:14:07.507Z,17.00
2019-03-01T12:16:36.869Z,16.99
2019-03-01T12:19:06.254Z,16.93
2019-03-01T12:21:35.159Z,16.98
2019-03-01T12:24:04.519Z,17.23
2019-03-01T12:26:34.165Z,17.08
2019-03-01T12:29:03.776Z,16.94
2019-03-01T12:31:33.112Z,16.86
2019-03-01T12:34:02.409Z,17.29
2019-03-01T12:36:31.540Z,17.04
2019-03-01T12:39:00.913Z,16.87
2019-03-01T12:41:29.797Z,17.34
2019-03-01T12:43:59.105Z,17.68
2019-03-01T12:46:28.157Z,18.13
2019-03-01T12:48:57.487Z,18.04
2019-03-01T12:51:27.085Z,17.96
2019-03-01T12:53:56.422Z,18.13
2019-03-01T12:56:25.877Z,18.03
2019-03-01T12:58:55.215Z,17.66
2019-03-01T13:01:25.957Z,17.74
2019-03-01T13:03:55.220Z,17.82
2019-03-01T13:06:24.384Z,18.06
2019-03-01T13:08:54.671Z,18.12
2019-03-01T13:11:23.842Z,18.03
2019-03-01T13:13:53.641Z,18.23
2019-03-01T13:16:23.493Z,18.78
2019-03-01T13:18:52.421Z,18.58
2019-03-01T13:21:21.420Z,18.29
2019-03-01T13:23:50.601Z,17.91
2019-03-01T13:26:19.720Z,18.12
2019-03-01T13:28:49.743Z,18.06
2019-03-01T13:31:19.100Z,17.84
2019-03-01T13:33:48.352Z,18.68
2019-03-01T13:36:17.696Z,18.81
2019-03-01T13:38:47.045Z,19.12
2019-03-01T13:41:16.452Z,18.88
2019-03-01T13:43:45.334Z,19.22
2019-03-01T13:46:15.106Z,19.80
2019-03-01T13:48:44.405Z,20.24
2019-03-01T13:51:17.120Z,20.16
2019-03-01T13:53:49.041Z,19.43
2019-03-01T13:56:12.556Z,19.83
2019-03-01T13:58:42.415Z,19.65
2019-03-01T14:01:12.211Z,19.49
2019-03-01T14:03:41.472Z,19.84
2019-03-01T14:06:10.687Z,20.69
2019-03-01T14:08:40.148Z,19.48
2019-03-01T14:11:09.862Z,20.00
2019-03-01T14:13:39.772Z,20.49
2019-03-01T14:16:09.737Z,20.35
2019-03-01T14:18:38.908Z,20.66
2019-03-01T14:21:08.187Z,20.55
2019-03-01T14:23:37.470Z,20.30
2019-03-01T14:26:08.300Z,20.23
2019-03-01T14:28:38.053Z,20.02
2019-03-01T14:31:07.521Z,19.01
2019-03-01T14:33:36.770Z,19.08
2019-03-01T14:36:05.903Z,18.18
2019-03-01T14:38:34.771Z,18.60
2019-03-01T14:41:04.344Z,18.63
2019-03-01T14:43:33.466Z,19.00
2019-03-01T14:46:02.710Z,18.85
2019-03-01T14:48:31.940Z,18.82
2019-03-01T14:51:02.244Z,18.77
2019-03-01T14:53:34.355Z,18.52
2019-03-01T14:56:05.684Z,17.95
2019-03-01T14:58:39.411Z,18.14
2019-03-01T15:02:15.558Z,18.12
2019-03-01T15:04:44.721Z,17.69
2019-03-01T15:07:14.431Z,17.40
2019-03-01T15:09:43.283Z,17.39
2019-03-01T15:12:19.658Z,16.71
2019-03-01T15:14:41.850Z,16.21
2019-03-01T15:17:12.184Z,16.07
2019-03-01T15:19:44.508Z,15.47
2019-03-01T15:22:13.051Z,15.59
2019-03-01T15:24:40.127Z,15.31
2019-03-01T15:27:09.281Z,14.95
2019-03-01T15:29:39.700Z,14.71
2019-03-01T15:32:09.735Z,14.64
2019-03-01T15:34:39.635Z,14.60
2019-03-01T15:37:08.902Z,14.52
2019-03-01T15:39:38.040Z,14.53
2019-03-01T15:42:09.943Z,14.40
2019-03-01T15:44:37.868Z,14.34
2019-03-01T15:47:07.548Z,14.18
2019-03-01T15:49:36.761Z,14.33
2019-03-01T15:52:06.031Z,14.28
2019-03-01T15:54:35.933Z,14.31
2019-03-01T15:57:04.556Z,14.33
2019-03-01T15:59:34.237Z,14.09
2019-03-01T16:02:03.271Z,14.07
2019-03-01T16:04:33.613Z,14.18
2019-03-01T16:07:01.859Z,14.12
2019-03-01T16:09:31.907Z,14.07
2019-03-01T16:12:00.784Z,14.01
2019-03-01T16:14:29.635Z,13.84
2019-03-01T16:16:58.760Z,13.72
2019-03-01T16:19:28.353Z,13.60
2019-03-01T16:21:57.982Z,13.61
2019-03-01T16:24:26.963Z,13.61
2019-03-01T16:26:56.377Z,13.57
2019-03-01T16:29:26.229Z,13.45
2019-03-01T16:31:55.778Z,13.67
2019-03-01T16:34:24.903Z,18.15
2019-03-01T16:36:56.024Z,19.94
2019-03-01T16:39:25.319Z,18.40
2019-03-01T16:41:54.513Z,21.84
2019-03-01T16:44:24.103Z,20.20
2019-03-01T16:46:53.762Z,22.73
2019-03-01T16:49:26.820Z,23.20
2019-03-01T16:51:54.058Z,20.99
2019-03-01T16:54:22.205Z,21.93
2019-03-01T16:56:51.961Z,23.26
2019-03-01T16:59:20.799Z,22.73
2019-03-01T17:01:49.747Z,20.45
2019-03-01T17:04:18.778Z,18.68
2019-03-01T17:06:49.299Z,18.20
2019-03-01T17:09:17.891Z,18.28
2019-03-01T17:11:47.051Z,17.67
2019-03-01T17:14:16.822Z,17.70
2019-03-01T17:16:45.960Z,17.70
2019-03-01T17:19:15.164Z,19.30
2019-03-01T17:21:47.679Z,17.86
2019-03-01T17:24:15.539Z,16.90
2019-03-01T17:26:42.779Z,17.00
2019-03-01T17:29:12.510Z,17.05
2019-03-01T17:31:41.566Z,16.74
2019-03-01T17:34:10.484Z,16.70
2019-03-01T17:36:39.615Z,18.49
2019-03-01T17:39:08.881Z,17.34
2019-03-01T17:41:38.567Z,17.05
2019-03-01T17:44:08.721Z,16.64
2019-03-01T17:46:36.981Z,17.47
2019-03-01T17:49:06.080Z,17.62
2019-03-01T17:51:41.385Z,20.05
2019-03-01T17:54:10.404Z,21.33
2019-03-01T17:56:39.410Z,19.63
2019-03-01T17:59:11.830Z,19.94
2019-03-01T18:01:39.280Z,20.10
2019-03-01T18:04:08.117Z,20.54
2019-03-01T18:06:37.358Z,19.66
2019-03-01T18:09:07.578Z,20.30
2019-03-01T18:11:36.596Z,19.23
2019-03-01T18:14:05.765Z,19.70
2019-03-01T18:16:34.853Z,20.22
2019-03-01T18:19:03.949Z,23.53
2019-03-01T18:21:34.110Z,22.41
2019-03-01T18:24:03.151Z,21.48
2019-03-01T18:26:32.969Z,18.56
2019-03-01T18:29:04.412Z,17.72
2019-03-01T18:31:35.415Z,17.46
2019-03-01T18:34:02.693Z,17.00
2019-03-01T18:36:32.888Z,17.70
2019-03-01T18:39:03.781Z,18.10
2019-03-01T18:41:30.923Z,18.55
2019-03-01T18:44:00.080Z,19.72
2019-03-01T18:46:29.209Z,19.36
2019-03-01T18:48:59.032Z,19.54
2019-03-01T18:51:28.173Z,20.99
2019-03-01T18:53:57.273Z,22.80
2019-03-01T18:56:28.618Z,19.91
2019-03-01T18:58:55.851Z,18.87
2019-03-01T19:01:25.228Z,22.23
2019-03-01T19:03:55.097Z,18.94
2019-03-01T19:06:25.659Z,18.07
2019-03-01T19:08:54.633Z,22.19
2019-03-01T19:11:23.768Z,22.39
2019-03-01T19:13:52.900Z,18.81
2019-03-01T19:16:22.168Z,16.66
2019-03-01T19:18:53.087Z,15.42
2019-03-01T19:21:20.887Z,14.67
2019-03-01T19:23:49.844Z,14.01
2019-03-01T19:26:19.038Z,13.56
2019-03-01T19:28:49.323Z,13.04
2019-03-01T19:31:21.574Z,12.73
2019-03-01T19:33:47.485Z,12.54
2019-03-01T19:36:16.695Z,12.54
2019-03-01T19:38:46.498Z,12.32
2019-03-01T19:41:15.065Z,12.14
2019-03-01T19:43:45.642Z,11.96
2019-03-01T19:46:15.718Z,11.74
2019-03-01T19:48:42.975Z,11.60
2019-03-01T19:51:12.852Z,11.63
2019-03-01T19:53:41.857Z,11.58
2019-03-01T19:56:11.352Z,11.52
2019-03-01T19:58:40.616Z,11.44
2019-03-01T20:01:09.480Z,11.44
2019-03-01T20:03:38.374Z,11.27
2019-03-01T20:06:08.730Z,11.24
2019-03-01T20:08:37.064Z,11.23
2019-03-01T20:11:06.180Z,11.21
2019-03-01T20:13:35.361Z,11.01
2019-03-01T20:16:04.668Z,10.84
2019-03-01T20:18:34.305Z,10.73
2019-03-01T20:21:05.846Z,10.16
2019-03-01T20:23:32.986Z,10.06
2019-03-01T20:26:02.548Z,9.98
2019-03-01T20:28:32.038Z,9.88
2019-03-01T20:31:04.600Z,9.77
2019-03-01T20:33:30.656Z,9.80
2019-03-01T20:36:00.539Z,9.46
2019-03-01T20:38:29.581Z,9.54
2019-03-01T20:40:59.807Z,9.47
2019-03-01T20:43:29.496Z,9.32
2019-03-01T20:45:58.721Z,9.16
2019-03-01T20:48:28.901Z,9.15
2019-03-01T20:50:57.183Z,9.18
2019-03-01T20:53:26.339Z,9.01
2019-03-01T20:55:56.424Z,8.85
2019-03-01T20:58:25.615Z,8.80
2019-03-01T21:00:54.482Z,8.74
2019-03-01T21:03:24.915Z,8.61
2019-03-01T21:05:52.847Z,8.47
2019-03-01T21:08:22.039Z,8.49
2019-03-01T21:10:51.264Z,8.45
2019-03-01T21:13:26.905Z,8.33
2019-03-01T21:15:56.964Z,8.26
2019-03-01T21:18:26.123Z,8.29
2019-03-01T21:20:55.000Z,8.23
2019-03-01T21:23:24.016Z,8.15
2019-03-01T21:25:53.092Z,8.16
2019-03-01T21:28:22.059Z,8.09
2019-03-01T21:30:51.268Z,7.96
2019-03-01T21:33:23.992Z,7.99
2019-03-01T21:35:51.219Z,7.81
2019-03-01T21:38:20.035Z,7.76
2019-03-01T21:40:50.019Z,7.74
2019-03-01T21:43:18.806Z,7.54
2019-03-01T21:45:48.056Z,7.21
2019-03-01T21:48:18.649Z,7.26
2019-03-01T21:50:46.703Z,7.17
2019-03-01T21:53:16.227Z,7.01
2019-03-01T21:55:45.144Z,7.02
2019-03-01T21:58:14.205Z,7.00
2019-03-01T22:00:44.068Z,6.67
2019-03-01T22:03:13.115Z,7.02
2019-03-01T22:05:45.261Z,7.12
2019-03-01T22:08:12.878Z,6.79
2019-03-01T22:10:40.780Z,6.78
2019-03-01T22:13:10.186Z,6.96
2019-03-01T22:15:39.139Z,7.08
2019-03-01T22:18:08.411Z,7.14
2019-03-01T22:20:41.479Z,7.21
2019-03-01T22:23:10.194Z,7.10
2019-03-01T22:25:37.984Z,7.08
2019-03-01T22:28:06.026Z,7.06
2019-03-01T22:30:35.193Z,6.60
2019-03-01T22:33:04.254Z,6.86
2019-03-01T22:35:33.572Z,6.76
2019-03-01T22:38:04.793Z,6.91
2019-03-01T22:40:32.693Z,6.93
2019-03-01T22:43:02.755Z,7.04
2019-03-01T22:45:32.831Z,7.05
2019-03-01T22:48:02.508Z,6.85
2019-03-01T22:50:31.676Z,6.94
2019-03-01T22:53:03.238Z,6.79
2019-03-01T22:55:29.928Z,6.91
2019-03-01T22:58:00.837Z,6.92
2019-03-01T23:01:44.032Z,6.96
2019-03-01T23:04:13.439Z,7.15
2019-03-01T23:06:42.651Z,7.12
2019-03-01T23:09:15.857Z,7.01
2019-03-01T23:11:45.016Z,6.81
2019-03-01T23:14:14.071Z,6.62
2019-03-01T23:16:43.112Z,6.63
2019-03-01T23:19:16.084Z,6.68
2019-03-01T23:21:42.128Z,6.59
2019-03-01T23:24:11.401Z,6.55
2019-03-01T23:26:40.943Z,6.48
2019-03-01T23:29:09.917Z,6.38
2019-03-01T23:31:39.735Z,6.07
2019-03-01T23:34:09.076Z,6.11
2019-03-01T23:36:38.283Z,6.09
2019-03-01T23:39:08.156Z,6.09
2019-03-01T23:41:37.466Z,6.07
2019-03-01T23:44:07.834Z,5.87
2019-03-01T23:46:36.763Z,5.89
2019-03-01T23:49:06.687Z,5.88
2019-03-01T23:51:35.247Z,5.89
2019-03-01T23:54:05.757Z,5.86
2019-03-01T23:56:33.696Z,5.73
2019-03-01T23:59:02.846Z,5.66
